Terminal Aerodrome Forecast
Issued by NWS

Home | Current Version | Previous Version | Graphics & Text | Print | Product List | Glossary On
Versions: 1 2 3 4 5 6 7 8 9 10 11 12 13 14 15 16 17 18 19 20
000
FTUS45 KGGW 031100
TAFSDY
TAF
KSDY 031128Z 0312/0412 VRB06KT 3/4SM BR OVC005
     FM031500 VRB06KT 5SM FU SCT200
     FM031800 15006KT P6SM SCT070
     FM040300 18006KT P6SM SCT200
      AMD LTD TO CLD VIS AND WIND=

USA.gov is the U.S. government's official web portal to all federal, state and local government web resources and services.